createdAt,value
2018-01-27T00:00:40.418Z,5.00
2018-01-27T00:03:08.123Z,5.20
2018-01-27T00:05:35.879Z,5.00
2018-01-27T00:08:03.638Z,5.00
2018-01-27T00:10:31.299Z,4.90
2018-01-27T00:12:59.061Z,4.90
2018-01-27T00:15:26.738Z,5.00
2018-01-27T00:17:54.448Z,4.90
2018-01-27T00:20:22.149Z,4.90
2018-01-27T00:22:52.768Z,5.00
2018-01-27T00:25:20.446Z,4.90
2018-01-27T00:27:48.152Z,4.90
2018-01-27T00:30:15.834Z,4.80
2018-01-27T00:32:43.557Z,4.70
2018-01-27T00:35:11.978Z,5.00
2018-01-27T00:37:39.677Z,4.90
2018-01-27T00:40:07.346Z,5.10
2018-01-27T00:42:35.817Z,4.70
2018-01-27T00:45:03.560Z,4.70
2018-01-27T00:47:31.263Z,4.60
2018-01-27T00:49:58.939Z,4.40
2018-01-27T00:52:26.662Z,4.50
2018-01-27T00:54:55.090Z,4.70
2018-01-27T00:57:22.801Z,4.70
2018-01-27T00:59:51.239Z,4.70
2018-01-27T01:02:18.975Z,4.70
2018-01-27T01:04:46.640Z,4.70
2018-01-27T01:07:14.322Z,4.80
2018-01-27T01:09:42.015Z,4.70
2018-01-27T01:12:10.456Z,4.60
2018-01-27T01:14:38.150Z,4.60
2018-01-27T01:17:05.807Z,4.50
2018-01-27T01:19:33.514Z,4.50
2018-01-27T01:22:01.159Z,4.50
2018-01-27T01:24:28.851Z,4.60
2018-01-27T01:26:56.502Z,5.00
2018-01-27T01:29:24.193Z,5.10
2018-01-27T01:31:51.851Z,5.10
2018-01-27T01:34:19.538Z,4.90
2018-01-27T01:36:47.970Z,4.80
2018-01-27T01:39:15.677Z,4.70
2018-01-27T01:41:44.093Z,4.70
2018-01-27T01:44:27.455Z,4.70
2018-01-27T01:46:55.108Z,4.80
2018-01-27T01:49:24.602Z,4.80
2018-01-27T01:51:52.286Z,4.80
2018-01-27T01:54:20.755Z,4.70
2018-01-27T01:56:48.410Z,4.70
2018-01-27T01:59:16.114Z,4.70
2018-01-27T02:01:43.761Z,4.60
2018-01-27T02:04:12.222Z,4.20
2018-01-27T02:06:39.882Z,4.20
2018-01-27T02:09:07.590Z,4.20
2018-01-27T02:11:35.250Z,4.10
2018-01-27T02:14:02.982Z,4.10
2018-01-27T02:16:31.649Z,4.10
2018-01-27T02:19:00.125Z,3.90
2018-01-27T02:21:28.583Z,3.90
2018-01-27T02:23:56.282Z,3.90
2018-01-27T02:26:24.710Z,3.90
2018-01-27T02:28:52.417Z,3.90
2018-01-27T02:31:20.841Z,3.90
2018-01-27T02:33:49.356Z,4.20
2018-01-27T02:36:17.798Z,4.10
2018-01-27T02:38:45.507Z,4.10
2018-01-27T02:41:13.976Z,4.10
2018-01-27T02:43:42.451Z,3.80
2018-01-27T02:46:10.879Z,3.90
2018-01-27T02:48:38.618Z,3.80
2018-01-27T02:51:07.058Z,4.00
2018-01-27T02:53:34.786Z,3.90
2018-01-27T02:56:02.528Z,4.00
2018-01-27T02:58:30.354Z,3.90
2018-01-27T03:00:58.870Z,3.90
2018-01-27T03:03:27.999Z,3.90
2018-01-27T03:05:55.675Z,3.90
2018-01-27T03:08:23.416Z,4.00
2018-01-27T03:10:51.837Z,4.00
2018-01-27T03:13:20.310Z,4.00
2018-01-27T03:15:48.742Z,4.10
2018-01-27T03:18:16.450Z,4.00
2018-01-27T03:20:44.876Z,4.00
2018-01-27T03:23:12.614Z,4.00
2018-01-27T03:25:40.282Z,4.00
2018-01-27T03:28:08.046Z,4.10
2018-01-27T03:30:35.703Z,4.10
2018-01-27T03:33:03.422Z,4.30
2018-01-27T03:35:31.922Z,4.20
2018-01-27T03:37:59.655Z,4.20
2018-01-27T03:40:28.149Z,3.90
2018-01-27T03:42:56.994Z,3.80
2018-01-27T03:45:24.694Z,3.80
2018-01-27T03:47:53.110Z,4.00
2018-01-27T03:50:20.818Z,4.00
2018-01-27T03:52:49.407Z,3.70
2018-01-27T03:55:17.875Z,3.80
2018-01-27T03:57:46.352Z,3.80
2018-01-27T04:00:14.047Z,3.80
2018-01-27T04:02:41.703Z,4.10
2018-01-27T04:05:09.396Z,4.20
2018-01-27T04:07:37.047Z,4.10
2018-01-27T04:10:04.770Z,3.90
2018-01-27T04:12:33.205Z,4.00
2018-01-27T04:15:00.910Z,4.00
2018-01-27T04:17:28.612Z,4.00
2018-01-27T04:19:56.314Z,4.00
2018-01-27T04:22:24.734Z,4.20
2018-01-27T04:24:52.455Z,4.20
2018-01-27T04:27:20.878Z,4.20
2018-01-27T04:29:48.624Z,4.20
2018-01-27T04:32:16.287Z,4.20
2018-01-27T04:34:44.003Z,4.10
2018-01-27T04:37:12.441Z,4.20
2018-01-27T04:39:40.138Z,4.20
2018-01-27T04:42:07.789Z,4.20
2018-01-27T04:44:35.502Z,4.20
2018-01-27T04:47:03.162Z,4.10
2018-01-27T04:49:30.879Z,4.00
2018-01-27T04:51:58.554Z,4.10
2018-01-27T04:54:27.044Z,4.00
2018-01-27T04:56:54.710Z,4.00
2018-01-27T04:59:22.442Z,3.80
2018-01-27T05:01:50.868Z,3.90
2018-01-27T05:04:18.567Z,3.90
2018-01-27T05:06:46.227Z,4.00
2018-01-27T05:09:13.942Z,4.00
2018-01-27T05:11:41.593Z,4.10
2018-01-27T05:14:09.298Z,3.90
2018-01-27T05:16:36.961Z,3.90
2018-01-27T05:19:05.126Z,4.00
2018-01-27T05:21:33.690Z,4.10
2018-01-27T05:24:01.386Z,4.10
2018-01-27T05:26:29.923Z,4.20
2018-01-27T05:28:57.634Z,4.20
2018-01-27T05:31:26.050Z,4.20
2018-01-27T05:33:53.759Z,4.20
2018-01-27T05:36:21.415Z,4.20
2018-01-27T05:38:49.134Z,4.10
2018-01-27T05:41:16.790Z,3.80
2018-01-27T05:43:44.498Z,4.00
2018-01-27T05:46:12.153Z,4.10
2018-01-27T05:48:39.870Z,4.20
2018-01-27T05:51:07.542Z,4.20
2018-01-27T05:53:35.309Z,4.20
2018-01-27T05:56:02.974Z,4.10
2018-01-27T05:58:30.725Z,4.10
2018-01-27T06:00:58.387Z,4.10
2018-01-27T06:03:26.048Z,4.00
2018-01-27T06:05:53.746Z,4.10
2018-01-27T06:08:22.213Z,4.20
2018-01-27T06:10:49.917Z,4.20
2018-01-27T06:13:17.627Z,4.10
2018-01-27T06:15:45.362Z,4.00
2018-01-27T06:18:13.077Z,3.90
2018-01-27T06:20:40.830Z,4.00
2018-01-27T06:23:09.278Z,4.00
2018-01-27T06:25:36.978Z,4.10
2018-01-27T06:28:04.646Z,4.00
2018-01-27T06:30:32.381Z,4.00
2018-01-27T06:33:00.819Z,4.10
2018-01-27T06:35:28.526Z,4.10
2018-01-27T06:37:56.952Z,4.00
2018-01-27T06:40:24.645Z,3.90
2018-01-27T06:42:52.321Z,4.00
2018-01-27T06:45:20.802Z,4.00
2018-01-27T06:47:49.488Z,3.90
2018-01-27T06:50:17.956Z,3.90
2018-01-27T06:52:46.387Z,3.90
2018-01-27T06:55:14.086Z,3.90
2018-01-27T06:57:41.757Z,3.90
2018-01-27T07:00:10.230Z,3.90
2018-01-27T07:02:38.666Z,3.90
2018-01-27T07:05:06.382Z,4.00
2018-01-27T07:07:34.815Z,3.90
2018-01-27T07:10:02.529Z,3.90
2018-01-27T07:12:30.195Z,3.90
2018-01-27T07:14:57.904Z,3.90
2018-01-27T07:17:25.562Z,4.00
2018-01-27T07:19:53.282Z,3.90
2018-01-27T07:22:20.942Z,3.90
2018-01-27T07:24:48.655Z,3.90
2018-01-27T07:27:16.324Z,4.10
2018-01-27T07:29:44.830Z,4.10
2018-01-27T07:32:12.500Z,4.10
2018-01-27T07:34:40.203Z,4.00
2018-01-27T07:37:07.858Z,3.80
2018-01-27T07:39:35.579Z,3.90
2018-01-27T07:42:03.244Z,3.90
2018-01-27T07:44:30.956Z,4.00
2018-01-27T07:46:59.431Z,4.00
2018-01-27T07:49:27.136Z,4.00
2018-01-27T07:51:54.793Z,3.80
2018-01-27T07:54:22.534Z,3.80
2018-01-27T07:56:50.197Z,4.00
2018-01-27T07:59:17.922Z,4.00
2018-01-27T08:01:45.586Z,3.80
2018-01-27T08:04:13.288Z,3.60
2018-01-27T08:06:40.962Z,3.70
2018-01-27T08:09:08.678Z,3.80
2018-01-27T08:11:37.096Z,4.20
2018-01-27T08:14:04.811Z,4.10
2018-01-27T08:16:33.237Z,4.10
2018-01-27T08:19:00.931Z,4.10
2018-01-27T08:21:28.588Z,4.20
2018-01-27T08:23:56.247Z,4.30
2018-01-27T08:26:23.947Z,4.30
2018-01-27T08:28:51.602Z,4.10
2018-01-27T08:31:20.059Z,3.90
2018-01-27T08:33:47.727Z,3.90
2018-01-27T08:36:16.224Z,4.10
2018-01-27T08:38:43.905Z,4.10
2018-01-27T08:41:11.626Z,4.20
2018-01-27T08:43:40.244Z,4.10
2018-01-27T08:46:07.990Z,4.10
2018-01-27T08:48:35.659Z,4.10
2018-01-27T08:51:03.369Z,4.10
2018-01-27T08:53:31.027Z,4.10
2018-01-27T08:55:58.772Z,4.00
2018-01-27T08:58:26.776Z,4.10
2018-01-27T09:00:55.241Z,4.20
2018-01-27T09:03:22.914Z,4.20
2018-01-27T09:05:51.382Z,4.20
2018-01-27T09:08:19.049Z,4.20
2018-01-27T09:10:47.558Z,4.20
2018-01-27T09:13:15.220Z,4.20
2018-01-27T09:15:42.934Z,4.20
2018-01-27T09:18:10.600Z,4.00
2018-01-27T09:20:39.074Z,4.10
2018-01-27T09:23:06.739Z,4.00
2018-01-27T09:25:35.210Z,4.00
2018-01-27T09:28:02.875Z,4.00
2018-01-27T09:30:30.583Z,3.80
2018-01-27T09:32:59.002Z,4.00
2018-01-27T09:35:26.714Z,4.20
2018-01-27T09:37:54.370Z,3.90
2018-01-27T09:40:22.082Z,4.10
2018-01-27T09:42:49.758Z,4.40
2018-01-27T09:45:18.345Z,4.40
2018-01-27T09:47:46.819Z,4.40
2018-01-27T09:50:15.291Z,4.40
2018-01-27T09:52:43.729Z,4.60
2018-01-27T09:55:11.439Z,4.50
2018-01-27T09:57:39.867Z,4.60
2018-01-27T10:00:07.611Z,4.60
2018-01-27T10:02:35.284Z,4.70
2018-01-27T10:05:02.997Z,4.70
2018-01-27T10:07:31.425Z,4.80
2018-01-27T10:09:59.154Z,4.80
2018-01-27T10:12:26.842Z,4.80
2018-01-27T10:14:54.543Z,4.80
2018-01-27T10:17:22.962Z,4.90
2018-01-27T10:19:50.658Z,4.90
2018-01-27T10:22:18.319Z,4.80
2018-01-27T10:24:46.014Z,4.70
2018-01-27T10:27:14.430Z,4.40
2018-01-27T10:29:42.128Z,4.40
2018-01-27T10:32:09.791Z,4.40
2018-01-27T10:34:37.485Z,4.60
2018-01-27T10:37:05.180Z,4.50
2018-01-27T10:39:32.879Z,4.60
2018-01-27T10:42:01.300Z,4.90
2018-01-27T10:44:29.052Z,4.80
2018-01-27T10:46:56.719Z,4.70
2018-01-27T10:49:24.447Z,4.80
2018-01-27T10:51:52.976Z,4.80
2018-01-27T10:54:20.625Z,4.80
2018-01-27T10:56:48.340Z,4.80
2018-01-27T10:59:16.777Z,5.00
2018-01-27T11:01:44.479Z,5.00
2018-01-27T11:04:12.909Z,5.00
2018-01-27T11:06:40.619Z,5.00
2018-01-27T11:09:09.035Z,5.00
2018-01-27T11:11:36.727Z,5.00
2018-01-27T11:14:04.388Z,5.10
2018-01-27T11:16:37.695Z,5.10
2018-01-27T11:19:06.139Z,5.20
2018-01-27T11:21:33.938Z,5.20
2018-01-27T11:24:02.358Z,5.10
2018-01-27T11:26:30.054Z,5.10
2018-01-27T11:28:57.723Z,5.10
2018-01-27T11:31:25.421Z,5.00
2018-01-27T11:33:53.085Z,4.90
2018-01-27T11:36:20.775Z,4.90
2018-01-27T11:38:48.427Z,4.90
2018-01-27T11:41:16.118Z,4.90
2018-01-27T11:43:43.783Z,4.80
2018-01-27T11:46:11.495Z,4.60
2018-01-27T11:48:39.400Z,4.60
2018-01-27T11:51:07.099Z,4.60
2018-01-27T11:53:34.803Z,4.70
2018-01-27T11:56:02.543Z,4.70
2018-01-27T11:58:30.199Z,4.60
2018-01-27T12:00:57.850Z,4.50
2018-01-27T12:03:25.586Z,4.50
2018-01-27T12:05:54.010Z,4.40
2018-01-27T12:08:21.706Z,4.40
2018-01-27T12:10:49.372Z,4.60
2018-01-27T12:13:17.862Z,4.80
2018-01-27T12:15:46.302Z,4.70
2018-01-27T12:18:14.010Z,4.70
2018-01-27T12:20:41.674Z,4.70
2018-01-27T12:23:09.395Z,4.90
2018-01-27T12:25:37.062Z,4.90
2018-01-27T12:28:04.799Z,4.90
2018-01-27T12:30:32.463Z,5.00
2018-01-27T12:33:00.179Z,4.90
2018-01-27T12:35:27.846Z,4.80
2018-01-27T12:37:57.720Z,4.80
2018-01-27T12:40:26.361Z,4.50
2018-01-27T12:42:54.063Z,4.50
2018-01-27T12:45:22.506Z,4.60
2018-01-27T12:47:50.212Z,4.60
2018-01-27T12:50:18.658Z,4.80
2018-01-27T12:52:46.399Z,4.80
2018-01-27T12:55:14.071Z,5.00
2018-01-27T12:57:41.796Z,4.90
2018-01-27T13:00:09.463Z,4.80
2018-01-27T13:02:37.126Z,5.10
2018-01-27T13:05:04.829Z,5.20
2018-01-27T13:07:32.498Z,4.90
2018-01-27T13:10:00.966Z,5.10
2018-01-27T13:12:28.626Z,5.10
2018-01-27T13:14:56.334Z,5.20
2018-01-27T13:17:24.025Z,5.30
2018-01-27T13:19:51.729Z,5.20
2018-01-27T13:22:19.386Z,5.30
2018-01-27T13:24:47.095Z,5.20
2018-01-27T13:27:14.771Z,5.20
2018-01-27T13:29:42.481Z,4.90
2018-01-27T13:32:10.153Z,4.90
2018-01-27T13:34:37.862Z,4.50
2018-01-27T13:37:05.521Z,4.30
2018-01-27T13:39:33.248Z,4.60
2018-01-27T13:42:00.943Z,4.80
2018-01-27T13:44:28.758Z,5.00
2018-01-27T13:46:56.472Z,5.00
2018-01-27T13:49:24.946Z,5.00
2018-01-27T13:51:53.409Z,5.00
2018-01-27T13:54:22.317Z,5.00
2018-01-27T13:56:51.070Z,5.00
2018-01-27T13:59:18.794Z,4.90
2018-01-27T14:01:46.462Z,5.10
2018-01-27T14:04:14.161Z,5.00
2018-01-27T14:06:41.883Z,5.00
2018-01-27T14:09:09.552Z,5.00
2018-01-27T14:11:37.259Z,4.90
2018-01-27T14:14:05.690Z,5.00
2018-01-27T14:16:33.394Z,5.00
2018-01-27T14:19:01.835Z,4.90
2018-01-27T14:21:29.550Z,4.90
2018-01-27T14:23:58.013Z,4.80
2018-01-27T14:26:26.494Z,4.90
2018-01-27T14:28:54.921Z,4.90
2018-01-27T14:31:22.621Z,4.90
2018-01-27T14:33:50.287Z,5.00
2018-01-27T14:36:18.838Z,5.00
2018-01-27T14:38:46.518Z,5.10
2018-01-27T14:41:14.224Z,5.10
2018-01-27T14:43:41.898Z,5.10
2018-01-27T14:46:09.632Z,5.10
2018-01-27T14:48:37.304Z,5.10
2018-01-27T14:51:05.090Z,5.00
2018-01-27T14:53:32.808Z,5.00
2018-01-27T14:56:00.624Z,5.00
2018-01-27T14:58:28.338Z,5.00
2018-01-27T15:00:56.088Z,4.90
2018-01-27T15:03:24.600Z,4.80
2018-01-27T15:05:52.290Z,4.80
2018-01-27T15:08:20.060Z,4.80
2018-01-27T15:10:47.814Z,4.80
2018-01-27T15:13:15.574Z,5.00
2018-01-27T15:15:43.438Z,5.20
2018-01-27T15:18:11.150Z,5.20
2018-01-27T15:20:38.945Z,5.00
2018-01-27T15:23:06.686Z,5.10
2018-01-27T15:25:34.364Z,5.00
2018-01-27T15:28:02.143Z,5.10
2018-01-27T15:30:29.837Z,5.00
2018-01-27T15:32:58.342Z,5.00
2018-01-27T15:35:26.021Z,5.00
2018-01-27T15:37:53.923Z,4.90
2018-01-27T15:40:21.587Z,5.00
2018-01-27T15:42:50.036Z,5.00
2018-01-27T15:45:17.774Z,5.00
2018-01-27T15:47:45.438Z,5.00
2018-01-27T15:50:13.183Z,5.00
2018-01-27T15:52:40.920Z,4.70
2018-01-27T15:55:09.690Z,4.80
2018-01-27T15:57:37.425Z,4.80
2018-01-27T16:00:05.116Z,4.70
2018-01-27T16:02:33.642Z,4.80
2018-01-27T16:05:01.298Z,4.80
2018-01-27T16:07:29.030Z,4.80
2018-01-27T16:09:56.705Z,4.70
2018-01-27T16:12:24.498Z,4.80
2018-01-27T16:14:52.162Z,4.70
2018-01-27T16:17:19.992Z,4.60
2018-01-27T16:19:47.658Z,4.80
2018-01-27T16:22:15.414Z,4.70
2018-01-27T16:24:43.086Z,4.70
2018-01-27T16:27:11.083Z,4.70
2018-01-27T16:29:38.742Z,4.60
2018-01-27T16:32:06.408Z,4.60
2018-01-27T16:34:34.156Z,4.60
2018-01-27T16:37:01.870Z,4.70
2018-01-27T16:39:30.194Z,4.60
2018-01-27T16:42:00.161Z,4.70
2018-01-27T16:44:27.954Z,4.70
2018-01-27T16:46:55.730Z,4.70
2018-01-27T16:49:23.515Z,4.60
2018-01-27T16:51:51.957Z,4.60
2018-01-27T16:54:19.790Z,4.60
2018-01-27T16:56:47.741Z,4.70
2018-01-27T16:59:15.666Z,4.60
2018-01-27T17:01:43.569Z,4.70
2018-01-27T17:04:11.419Z,4.60
2018-01-27T17:06:40.179Z,4.70
2018-01-27T17:09:07.850Z,4.70
2018-01-27T17:11:35.773Z,4.80
2018-01-27T17:14:03.561Z,4.70
2018-01-27T17:16:31.308Z,4.70
2018-01-27T17:18:59.044Z,4.70
2018-01-27T17:21:26.897Z,4.70
2018-01-27T17:23:54.784Z,4.70
2018-01-27T17:26:22.518Z,4.70
2018-01-27T17:28:50.325Z,4.60
2018-01-27T17:31:17.982Z,4.60
2018-01-27T17:33:45.868Z,4.70
2018-01-27T17:36:13.918Z,4.70
2018-01-27T17:38:41.687Z,4.70
2018-01-27T17:41:09.531Z,4.70
2018-01-27T17:43:37.196Z,4.70
2018-01-27T17:46:05.047Z,4.80
2018-01-27T17:48:32.734Z,4.80
2018-01-27T17:51:00.475Z,4.70
2018-01-27T17:53:28.242Z,4.60
2018-01-27T17:55:55.974Z,4.60
2018-01-27T17:58:23.758Z,4.60
2018-01-27T18:00:51.542Z,4.60
2018-01-27T18:03:19.331Z,4.60
2018-01-27T18:05:47.757Z,4.50
2018-01-27T18:08:15.507Z,4.60
2018-01-27T18:10:43.211Z,4.60
2018-01-27T18:13:11.067Z,4.50
2018-01-27T18:15:38.778Z,4.50
2018-01-27T18:18:06.495Z,4.40
2018-01-27T18:20:34.243Z,4.40
2018-01-27T18:23:02.778Z,4.30
2018-01-27T18:25:30.530Z,4.20
2018-01-27T18:27:59.284Z,4.10
2018-01-27T18:30:26.974Z,4.10
2018-01-27T18:32:55.414Z,4.10
2018-01-27T18:35:24.347Z,4.10
2018-01-27T18:37:52.132Z,4.10
2018-01-27T18:40:19.802Z,4.10
2018-01-27T18:42:47.542Z,4.10
2018-01-27T18:45:15.197Z,4.10
2018-01-27T18:47:43.120Z,4.20
2018-01-27T18:50:10.855Z,4.10
2018-01-27T18:52:38.538Z,4.10
2018-01-27T18:55:06.313Z,4.20
2018-01-27T18:57:34.750Z,4.20
2018-01-27T19:00:02.613Z,4.20
2018-01-27T19:02:30.338Z,4.30
2018-01-27T19:04:58.074Z,4.30
2018-01-27T19:07:26.512Z,4.30
2018-01-27T19:09:54.411Z,4.30
2018-01-27T19:12:22.098Z,4.30
2018-01-27T19:14:49.771Z,4.30
2018-01-27T19:17:17.597Z,4.30
2018-01-27T19:19:45.257Z,4.30
2018-01-27T19:22:13.772Z,4.40
2018-01-27T19:24:41.581Z,4.40
2018-01-27T19:27:09.293Z,4.30
2018-01-27T19:29:36.971Z,4.30
2018-01-27T19:32:04.741Z,4.50
2018-01-27T19:34:32.417Z,4.40
2018-01-27T19:37:00.154Z,4.40
2018-01-27T19:39:27.848Z,4.50
2018-01-27T19:41:55.597Z,4.50
2018-01-27T19:44:23.318Z,4.50
2018-01-27T19:46:51.142Z,4.60
2018-01-27T19:49:19.612Z,4.60
2018-01-27T19:51:47.398Z,4.50
2018-01-27T19:54:15.239Z,4.50
2018-01-27T19:56:43.725Z,4.60
2018-01-27T19:59:12.334Z,4.60
2018-01-27T20:01:40.016Z,4.60
2018-01-27T20:04:07.783Z,4.60
2018-01-27T20:06:35.523Z,4.60
2018-01-27T20:09:03.301Z,4.70
2018-01-27T20:11:31.060Z,4.70
2018-01-27T20:13:58.724Z,4.80
2018-01-27T20:16:26.479Z,4.80
2018-01-27T20:18:54.231Z,4.70
2018-01-27T20:21:21.905Z,4.70
2018-01-27T20:23:49.662Z,4.80
2018-01-27T20:26:17.350Z,4.80
2018-01-27T20:28:45.217Z,4.80
2018-01-27T20:31:12.891Z,4.80
2018-01-27T20:33:40.558Z,4.80
2018-01-27T20:36:09.082Z,4.90
2018-01-27T20:38:36.761Z,4.90
2018-01-27T20:41:04.498Z,4.80
2018-01-27T20:43:32.239Z,4.80
2018-01-27T20:46:00.016Z,4.90
2018-01-27T20:48:27.828Z,4.90
2018-01-27T20:50:55.538Z,4.90
2018-01-27T20:53:23.983Z,5.00
2018-01-27T20:55:52.453Z,5.00
2018-01-27T20:58:20.228Z,5.00
2018-01-27T21:00:48.699Z,5.00
2018-01-27T21:03:17.364Z,5.00
2018-01-27T21:05:45.038Z,5.00
2018-01-27T21:08:13.472Z,5.00
2018-01-27T21:10:41.214Z,5.00
2018-01-27T21:13:08.887Z,5.00
2018-01-27T21:15:36.627Z,5.00
2018-01-27T21:18:04.290Z,5.10
2018-01-27T21:20:32.047Z,5.20
2018-01-27T21:22:59.717Z,5.10
2018-01-27T21:25:27.629Z,5.00
2018-01-27T21:27:55.290Z,5.10
2018-01-27T21:30:22.962Z,5.20
2018-01-27T21:32:51.467Z,5.20
2018-01-27T21:35:19.403Z,5.10
2018-01-27T21:37:47.138Z,5.20
2018-01-27T21:40:14.819Z,5.20
2018-01-27T21:42:42.766Z,5.20
2018-01-27T21:45:10.438Z,5.10
2018-01-27T21:47:38.112Z,5.20
2018-01-27T21:50:06.630Z,5.20
2018-01-27T21:52:34.374Z,5.30
2018-01-27T21:55:02.091Z,5.20
2018-01-27T21:57:29.834Z,5.30
2018-01-27T21:59:57.640Z,5.30
2018-01-27T22:02:26.073Z,5.30
2018-01-27T22:04:53.901Z,5.30
2018-01-27T22:07:21.582Z,5.30
2018-01-27T22:09:49.529Z,5.30
2018-01-27T22:12:17.213Z,5.30
2018-01-27T22:14:44.946Z,5.40
2018-01-27T22:17:12.606Z,5.40
2018-01-27T22:19:40.347Z,5.50
2018-01-27T22:22:08.779Z,5.50
2018-01-27T22:24:36.936Z,5.50
2018-01-27T22:27:04.604Z,5.50
2018-01-27T22:29:32.354Z,5.40
2018-01-27T22:32:00.164Z,5.50
2018-01-27T22:34:27.912Z,5.50
2018-01-27T22:36:55.832Z,5.50
2018-01-27T22:39:24.442Z,5.50
2018-01-27T22:41:52.103Z,5.50
2018-01-27T22:44:19.847Z,5.60
2018-01-27T22:46:48.758Z,5.50
2018-01-27T22:49:16.667Z,5.50
2018-01-27T22:51:45.126Z,5.60
2018-01-27T22:54:12.858Z,5.60
2018-01-27T22:56:40.539Z,5.60
2018-01-27T22:59:08.283Z,5.60
2018-01-27T23:01:35.963Z,5.60
2018-01-27T23:04:03.703Z,5.60
2018-01-27T23:06:31.375Z,5.60
2018-01-27T23:08:59.115Z,5.60
2018-01-27T23:11:26.859Z,5.70
2018-01-27T23:13:54.689Z,5.70
2018-01-27T23:16:23.120Z,5.70
2018-01-27T23:18:50.814Z,5.70
2018-01-27T23:21:19.323Z,5.70
2018-01-27T23:23:46.986Z,5.70
2018-01-27T23:26:14.722Z,5.70
2018-01-27T23:28:43.159Z,5.80
2018-01-27T23:31:10.898Z,5.70
2018-01-27T23:33:38.703Z,5.70
2018-01-27T23:36:06.438Z,5.80
2018-01-27T23:38:34.918Z,5.70
2018-01-27T23:41:02.661Z,5.70
2018-01-27T23:43:30.332Z,5.60
2018-01-27T23:45:58.075Z,5.70
2018-01-27T23:48:25.826Z,5.70
2018-01-27T23:50:53.574Z,5.70
2018-01-27T23:53:21.312Z,5.70
2018-01-27T23:55:49.742Z,5.60
2018-01-27T23:58:17.474Z,5.60
